sensor_id;sensor_type;location;lat;lon;timestamp;P1;durP1;ratioP1;P2;durP2;ratioP2
39218;SDS011;24934;52.752;6.964;2024-03-25T00:01:20;31.77;;;17.73;;
39218;SDS011;24934;52.752;6.964;2024-03-25T00:03:46;34.60;;;17.67;;
39218;SDS011;24934;52.752;6.964;2024-03-25T00:06:12;34.20;;;18.23;;
39218;SDS011;24934;52.752;6.964;2024-03-25T00:08:38;35.73;;;17.80;;
39218;SDS011;24934;52.752;6.964;2024-03-25T00:11:04;34.57;;;17.27;;
39218;SDS011;24934;52.752;6.964;2024-03-25T00:13:30;30.20;;;16.97;;
39218;SDS011;24934;52.752;6.964;2024-03-25T00:15:56;29.80;;;16.97;;
39218;SDS011;24934;52.752;6.964;2024-03-25T00:18:22;31.13;;;17.23;;
39218;SDS011;24934;52.752;6.964;2024-03-25T00:20:48;34.07;;;17.33;;
39218;SDS011;24934;52.752;6.964;2024-03-25T00:23:14;27.67;;;16.03;;
39218;SDS011;24934;52.752;6.964;2024-03-25T00:25:40;32.50;;;16.20;;
39218;SDS011;24934;52.752;6.964;2024-03-25T00:28:06;26.17;;;15.57;;
39218;SDS011;24934;52.752;6.964;2024-03-25T00:30:32;33.50;;;16.03;;
39218;SDS011;24934;52.752;6.964;2024-03-25T00:32:59;34.30;;;16.07;;
39218;SDS011;24934;52.752;6.964;2024-03-25T00:35:25;34.70;;;16.37;;
39218;SDS011;24934;52.752;6.964;2024-03-25T00:37:51;37.27;;;16.13;;
39218;SDS011;24934;52.752;6.964;2024-03-25T00:40:17;34.17;;;15.73;;
39218;SDS011;24934;52.752;6.964;2024-03-25T00:42:43;41.20;;;16.63;;
39218;SDS011;24934;52.752;6.964;2024-03-25T00:45:09;32.60;;;16.03;;
39218;SDS011;24934;52.752;6.964;2024-03-25T00:47:35;37.33;;;15.77;;
39218;SDS011;24934;52.752;6.964;2024-03-25T00:50:01;43.67;;;17.20;;
39218;SDS011;24934;52.752;6.964;2024-03-25T00:52:27;37.23;;;16.23;;
39218;SDS011;24934;52.752;6.964;2024-03-25T00:54:53;34.70;;;16.30;;
39218;SDS011;24934;52.752;6.964;2024-03-25T00:57:19;37.60;;;16.40;;
39218;SDS011;24934;52.752;6.964;2024-03-25T00:59:45;40.90;;;16.90;;
39218;SDS011;24934;52.752;6.964;2024-03-25T01:02:11;34.30;;;15.83;;
39218;SDS011;24934;52.752;6.964;2024-03-25T01:04:37;31.33;;;15.40;;
39218;SDS011;24934;52.752;6.964;2024-03-25T01:07:03;37.00;;;16.47;;
39218;SDS011;24934;52.752;6.964;2024-03-25T01:09:29;35.97;;;15.53;;
39218;SDS011;24934;52.752;6.964;2024-03-25T01:11:55;31.83;;;15.67;;
39218;SDS011;24934;52.752;6.964;2024-03-25T01:14:21;36.70;;;16.30;;
39218;SDS011;24934;52.752;6.964;2024-03-25T01:16:47;34.47;;;15.20;;
39218;SDS011;24934;52.752;6.964;2024-03-25T01:19:13;26.67;;;15.07;;
39218;SDS011;24934;52.752;6.964;2024-03-25T01:21:39;29.33;;;15.73;;
39218;SDS011;24934;52.752;6.964;2024-03-25T01:24:04;33.20;;;15.83;;
39218;SDS011;24934;52.752;6.964;2024-03-25T01:26:30;35.57;;;16.57;;
39218;SDS011;24934;52.752;6.964;2024-03-25T01:28:56;36.40;;;16.87;;
39218;SDS011;24934;52.752;6.964;2024-03-25T01:31:22;34.33;;;15.63;;
39218;SDS011;24934;52.752;6.964;2024-03-25T01:33:48;32.30;;;16.70;;
39218;SDS011;24934;52.752;6.964;2024-03-25T01:36:16;32.77;;;16.37;;
39218;SDS011;24934;52.752;6.964;2024-03-25T01:38:43;35.17;;;16.47;;
39218;SDS011;24934;52.752;6.964;2024-03-25T01:41:09;42.27;;;16.63;;
39218;SDS011;24934;52.752;6.964;2024-03-25T01:43:35;39.57;;;16.10;;
39218;SDS011;24934;52.752;6.964;2024-03-25T01:46:02;32.93;;;16.10;;
39218;SDS011;24934;52.752;6.964;2024-03-25T01:48:28;43.53;;;16.60;;
39218;SDS011;24934;52.752;6.964;2024-03-25T01:50:54;38.80;;;16.57;;
39218;SDS011;24934;52.752;6.964;2024-03-25T01:53:21;30.87;;;15.73;;
39218;SDS011;24934;52.752;6.964;2024-03-25T01:55:47;37.80;;;16.67;;
39218;SDS011;24934;52.752;6.964;2024-03-25T01:58:14;30.37;;;16.67;;
39218;SDS011;24934;52.752;6.964;2024-03-25T02:00:40;37.10;;;17.10;;
39218;SDS011;24934;52.752;6.964;2024-03-25T02:03:09;42.43;;;16.47;;
39218;SDS011;24934;52.752;6.964;2024-03-25T02:05:35;35.10;;;16.37;;
39218;SDS011;24934;52.752;6.964;2024-03-25T02:08:01;35.47;;;16.47;;
39218;SDS011;24934;52.752;6.964;2024-03-25T02:10:29;33.93;;;15.93;;
39218;SDS011;24934;52.752;6.964;2024-03-25T02:12:55;38.50;;;16.50;;
39218;SDS011;24934;52.752;6.964;2024-03-25T02:15:21;33.80;;;15.90;;
39218;SDS011;24934;52.752;6.964;2024-03-25T02:17:47;47.03;;;17.40;;
39218;SDS011;24934;52.752;6.964;2024-03-25T02:20:14;34.63;;;16.17;;
39218;SDS011;24934;52.752;6.964;2024-03-25T02:22:41;40.60;;;16.40;;
39218;SDS011;24934;52.752;6.964;2024-03-25T02:25:08;39.43;;;16.70;;
39218;SDS011;24934;52.752;6.964;2024-03-25T02:27:35;41.87;;;16.03;;
39218;SDS011;24934;52.752;6.964;2024-03-25T02:30:02;37.83;;;16.23;;
39218;SDS011;24934;52.752;6.964;2024-03-25T02:32:28;44.13;;;17.20;;
39218;SDS011;24934;52.752;6.964;2024-03-25T02:34:54;44.73;;;16.27;;
39218;SDS011;24934;52.752;6.964;2024-03-25T02:37:20;47.97;;;16.60;;
39218;SDS011;24934;52.752;6.964;2024-03-25T02:39:47;38.90;;;17.13;;
39218;SDS011;24934;52.752;6.964;2024-03-25T02:42:14;45.93;;;16.00;;
39218;SDS011;24934;52.752;6.964;2024-03-25T02:44:40;48.73;;;16.70;;
39218;SDS011;24934;52.752;6.964;2024-03-25T02:47:08;34.33;;;16.03;;
39218;SDS011;24934;52.752;6.964;2024-03-25T02:49:37;36.87;;;16.47;;
39218;SDS011;24934;52.752;6.964;2024-03-25T02:52:03;40.80;;;16.30;;
39218;SDS011;24934;52.752;6.964;2024-03-25T02:54:29;37.43;;;16.00;;
39218;SDS011;24934;52.752;6.964;2024-03-25T02:56:56;43.17;;;16.43;;
39218;SDS011;24934;52.752;6.964;2024-03-25T02:59:22;45.27;;;16.93;;
39218;SDS011;24934;52.752;6.964;2024-03-25T03:01:48;44.47;;;17.47;;
39218;SDS011;24934;52.752;6.964;2024-03-25T03:04:14;41.43;;;16.47;;
39218;SDS011;24934;52.752;6.964;2024-03-25T03:06:40;38.07;;;16.83;;
39218;SDS011;24934;52.752;6.964;2024-03-25T03:09:06;49.13;;;17.37;;
39218;SDS011;24934;52.752;6.964;2024-03-25T03:11:32;41.60;;;16.57;;
39218;SDS011;24934;52.752;6.964;2024-03-25T03:13:57;45.00;;;17.77;;
39218;SDS011;24934;52.752;6.964;2024-03-25T03:16:23;42.60;;;16.90;;
39218;SDS011;24934;52.752;6.964;2024-03-25T03:18:49;42.80;;;17.40;;
39218;SDS011;24934;52.752;6.964;2024-03-25T03:21:15;38.90;;;17.20;;
39218;SDS011;24934;52.752;6.964;2024-03-25T03:23:41;48.37;;;17.60;;
39218;SDS011;24934;52.752;6.964;2024-03-25T03:26:07;41.87;;;17.60;;
39218;SDS011;24934;52.752;6.964;2024-03-25T03:28:33;41.83;;;17.37;;
39218;SDS011;24934;52.752;6.964;2024-03-25T03:30:59;30.40;;;16.97;;
39218;SDS011;24934;52.752;6.964;2024-03-25T03:33:28;38.57;;;18.30;;
39218;SDS011;24934;52.752;6.964;2024-03-25T03:35:54;37.57;;;18.10;;
39218;SDS011;24934;52.752;6.964;2024-03-25T03:38:21;39.50;;;17.30;;
39218;SDS011;24934;52.752;6.964;2024-03-25T03:41:01;51.00;;;17.83;;
39218;SDS011;24934;52.752;6.964;2024-03-25T03:43:28;46.40;;;18.03;;
39218;SDS011;24934;52.752;6.964;2024-03-25T03:45:54;34.43;;;18.10;;
39218;SDS011;24934;52.752;6.964;2024-03-25T03:48:20;40.30;;;19.03;;
39218;SDS011;24934;52.752;6.964;2024-03-25T03:50:46;46.17;;;18.73;;
39218;SDS011;24934;52.752;6.964;2024-03-25T03:53:12;48.37;;;18.17;;
39218;SDS011;24934;52.752;6.964;2024-03-25T03:55:38;41.17;;;17.30;;
39218;SDS011;24934;52.752;6.964;2024-03-25T03:58:04;41.07;;;17.00;;
39218;SDS011;24934;52.752;6.964;2024-03-25T04:00:34;38.67;;;16.53;;
39218;SDS011;24934;52.752;6.964;2024-03-25T04:03:00;35.90;;;17.13;;
39218;SDS011;24934;52.752;6.964;2024-03-25T04:05:30;37.50;;;17.27;;
39218;SDS011;24934;52.752;6.964;2024-03-25T04:07:56;38.90;;;17.07;;
39218;SDS011;24934;52.752;6.964;2024-03-25T04:10:23;40.50;;;16.50;;
39218;SDS011;24934;52.752;6.964;2024-03-25T04:12:49;37.37;;;16.40;;
39218;SDS011;24934;52.752;6.964;2024-03-25T04:15:15;38.63;;;16.30;;
39218;SDS011;24934;52.752;6.964;2024-03-25T04:17:43;31.80;;;16.43;;
39218;SDS011;24934;52.752;6.964;2024-03-25T04:20:10;40.03;;;16.83;;
39218;SDS011;24934;52.752;6.964;2024-03-25T04:22:40;41.13;;;16.30;;
39218;SDS011;24934;52.752;6.964;2024-03-25T04:25:07;43.20;;;16.50;;
39218;SDS011;24934;52.752;6.964;2024-03-25T04:27:33;39.50;;;16.43;;
39218;SDS011;24934;52.752;6.964;2024-03-25T04:29:59;34.87;;;16.07;;
39218;SDS011;24934;52.752;6.964;2024-03-25T04:32:25;40.43;;;16.73;;
39218;SDS011;24934;52.752;6.964;2024-03-25T04:34:51;47.13;;;17.13;;
39218;SDS011;24934;52.752;6.964;2024-03-25T04:37:17;41.57;;;16.77;;
39218;SDS011;24934;52.752;6.964;2024-03-25T04:39:43;37.40;;;17.00;;
39218;SDS011;24934;52.752;6.964;2024-03-25T04:42:09;40.57;;;17.03;;
39218;SDS011;24934;52.752;6.964;2024-03-25T04:44:35;35.60;;;16.63;;
39218;SDS011;24934;52.752;6.964;2024-03-25T04:47:02;49.97;;;17.50;;
39218;SDS011;24934;52.752;6.964;2024-03-25T04:49:28;36.37;;;17.30;;
39218;SDS011;24934;52.752;6.964;2024-03-25T04:51:54;46.20;;;18.53;;
39218;SDS011;24934;52.752;6.964;2024-03-25T04:54:21;51.13;;;18.23;;
39218;SDS011;24934;52.752;6.964;2024-03-25T04:56:46;38.63;;;18.93;;
39218;SDS011;24934;52.752;6.964;2024-03-25T04:59:13;34.47;;;18.07;;
39218;SDS011;24934;52.752;6.964;2024-03-25T05:01:38;40.73;;;18.40;;
39218;SDS011;24934;52.752;6.964;2024-03-25T05:04:05;43.67;;;18.37;;
39218;SDS011;24934;52.752;6.964;2024-03-25T05:06:34;45.23;;;19.37;;
39218;SDS011;24934;52.752;6.964;2024-03-25T05:09:00;43.90;;;18.67;;
39218;SDS011;24934;52.752;6.964;2024-03-25T05:11:26;49.23;;;19.70;;
39218;SDS011;24934;52.752;6.964;2024-03-25T05:13:52;43.27;;;19.27;;
39218;SDS011;24934;52.752;6.964;2024-03-25T05:16:18;41.47;;;18.73;;
39218;SDS011;24934;52.752;6.964;2024-03-25T05:18:44;45.47;;;20.20;;
39218;SDS011;24934;52.752;6.964;2024-03-25T05:21:10;46.13;;;20.40;;
39218;SDS011;24934;52.752;6.964;2024-03-25T05:23:36;45.90;;;20.13;;
39218;SDS011;24934;52.752;6.964;2024-03-25T05:26:02;42.70;;;19.80;;
39218;SDS011;24934;52.752;6.964;2024-03-25T05:28:28;45.73;;;19.43;;
39218;SDS011;24934;52.752;6.964;2024-03-25T05:30:54;46.33;;;20.20;;
39218;SDS011;24934;52.752;6.964;2024-03-25T05:33:20;46.67;;;19.60;;
39218;SDS011;24934;52.752;6.964;2024-03-25T05:35:46;37.37;;;19.10;;
39218;SDS011;24934;52.752;6.964;2024-03-25T05:38:12;39.23;;;19.10;;
39218;SDS011;24934;52.752;6.964;2024-03-25T05:40:38;41.70;;;18.60;;
39218;SDS011;24934;52.752;6.964;2024-03-25T05:43:04;54.23;;;18.87;;
39218;SDS011;24934;52.752;6.964;2024-03-25T05:45:30;36.57;;;19.67;;
39218;SDS011;24934;52.752;6.964;2024-03-25T05:47:56;41.27;;;19.43;;
39218;SDS011;24934;52.752;6.964;2024-03-25T05:50:22;37.13;;;19.93;;
39218;SDS011;24934;52.752;6.964;2024-03-25T05:52:48;43.93;;;19.10;;
39218;SDS011;24934;52.752;6.964;2024-03-25T05:55:14;50.00;;;19.30;;
39218;SDS011;24934;52.752;6.964;2024-03-25T05:57:40;54.90;;;19.73;;
39218;SDS011;24934;52.752;6.964;2024-03-25T06:00:07;49.87;;;20.40;;
39218;SDS011;24934;52.752;6.964;2024-03-25T06:02:36;46.70;;;20.20;;
39218;SDS011;24934;52.752;6.964;2024-03-25T06:05:02;40.03;;;21.23;;
39218;SDS011;24934;52.752;6.964;2024-03-25T06:07:30;41.97;;;20.50;;
39218;SDS011;24934;52.752;6.964;2024-03-25T06:09:55;51.30;;;20.60;;
39218;SDS011;24934;52.752;6.964;2024-03-25T06:12:21;47.03;;;19.97;;
39218;SDS011;24934;52.752;6.964;2024-03-25T06:14:48;45.43;;;20.07;;
39218;SDS011;24934;52.752;6.964;2024-03-25T06:17:14;35.37;;;19.70;;
39218;SDS011;24934;52.752;6.964;2024-03-25T06:19:40;44.73;;;19.60;;
39218;SDS011;24934;52.752;6.964;2024-03-25T06:22:06;38.23;;;19.97;;
39218;SDS011;24934;52.752;6.964;2024-03-25T06:24:32;48.60;;;20.17;;
39218;SDS011;24934;52.752;6.964;2024-03-25T06:26:58;36.13;;;19.83;;
39218;SDS011;24934;52.752;6.964;2024-03-25T06:29:24;39.50;;;19.93;;
39218;SDS011;24934;52.752;6.964;2024-03-25T06:31:51;39.37;;;20.03;;
39218;SDS011;24934;52.752;6.964;2024-03-25T06:34:35;36.07;;;20.20;;
39218;SDS011;24934;52.752;6.964;2024-03-25T06:37:01;33.43;;;20.60;;
39218;SDS011;24934;52.752;6.964;2024-03-25T06:39:29;38.17;;;20.77;;
39218;SDS011;24934;52.752;6.964;2024-03-25T06:41:55;37.27;;;21.23;;
39218;SDS011;24934;52.752;6.964;2024-03-25T06:44:21;37.00;;;21.10;;
39218;SDS011;24934;52.752;6.964;2024-03-25T06:46:49;38.63;;;20.37;;
39218;SDS011;24934;52.752;6.964;2024-03-25T06:49:18;31.83;;;20.33;;
39218;SDS011;24934;52.752;6.964;2024-03-25T06:51:44;36.47;;;20.57;;
39218;SDS011;24934;52.752;6.964;2024-03-25T06:54:11;35.00;;;20.27;;
39218;SDS011;24934;52.752;6.964;2024-03-25T06:56:37;31.23;;;20.77;;
39218;SDS011;24934;52.752;6.964;2024-03-25T06:59:03;34.33;;;21.47;;
39218;SDS011;24934;52.752;6.964;2024-03-25T07:01:29;40.40;;;21.93;;
39218;SDS011;24934;52.752;6.964;2024-03-25T07:03:55;33.00;;;21.70;;
39218;SDS011;24934;52.752;6.964;2024-03-25T07:06:21;33.73;;;21.73;;
39218;SDS011;24934;52.752;6.964;2024-03-25T07:08:50;38.87;;;20.97;;
39218;SDS011;24934;52.752;6.964;2024-03-25T07:11:16;33.60;;;22.17;;
39218;SDS011;24934;52.752;6.964;2024-03-25T07:13:42;31.97;;;21.73;;
39218;SDS011;24934;52.752;6.964;2024-03-25T07:16:09;31.30;;;20.90;;
39218;SDS011;24934;52.752;6.964;2024-03-25T07:18:35;33.87;;;21.13;;
39218;SDS011;24934;52.752;6.964;2024-03-25T07:21:01;33.50;;;22.80;;
39218;SDS011;24934;52.752;6.964;2024-03-25T07:23:27;26.10;;;21.90;;
39218;SDS011;24934;52.752;6.964;2024-03-25T07:25:53;30.07;;;22.70;;
39218;SDS011;24934;52.752;6.964;2024-03-25T07:28:20;34.10;;;21.80;;
39218;SDS011;24934;52.752;6.964;2024-03-25T07:30:46;32.60;;;21.80;;
39218;SDS011;24934;52.752;6.964;2024-03-25T07:33:12;32.33;;;21.70;;
39218;SDS011;24934;52.752;6.964;2024-03-25T07:35:38;27.80;;;21.50;;
39218;SDS011;24934;52.752;6.964;2024-03-25T07:38:04;30.97;;;21.30;;
39218;SDS011;24934;52.752;6.964;2024-03-25T07:40:30;26.13;;;22.00;;
39218;SDS011;24934;52.752;6.964;2024-03-25T07:42:56;28.47;;;21.80;;
39218;SDS011;24934;52.752;6.964;2024-03-25T07:45:22;30.10;;;20.83;;
39218;SDS011;24934;52.752;6.964;2024-03-25T07:47:48;27.50;;;20.80;;
39218;SDS011;24934;52.752;6.964;2024-03-25T07:50:14;25.20;;;20.70;;
39218;SDS011;24934;52.752;6.964;2024-03-25T07:52:40;29.03;;;21.20;;
39218;SDS011;24934;52.752;6.964;2024-03-25T07:55:09;27.33;;;21.23;;
39218;SDS011;24934;52.752;6.964;2024-03-25T07:57:35;30.30;;;21.03;;
39218;SDS011;24934;52.752;6.964;2024-03-25T08:00:02;26.07;;;20.83;;
39218;SDS011;24934;52.752;6.964;2024-03-25T08:02:33;26.47;;;20.83;;
39218;SDS011;24934;52.752;6.964;2024-03-25T08:04:58;23.70;;;19.63;;
39218;SDS011;24934;52.752;6.964;2024-03-25T08:07:24;26.83;;;20.03;;
39218;SDS011;24934;52.752;6.964;2024-03-25T08:09:51;29.57;;;20.70;;
39218;SDS011;24934;52.752;6.964;2024-03-25T08:12:17;26.00;;;20.20;;
39218;SDS011;24934;52.752;6.964;2024-03-25T08:14:42;26.27;;;20.00;;
39218;SDS011;24934;52.752;6.964;2024-03-25T08:17:09;26.73;;;19.63;;
39218;SDS011;24934;52.752;6.964;2024-03-25T08:19:34;28.07;;;19.47;;
39218;SDS011;24934;52.752;6.964;2024-03-25T08:22:00;30.70;;;19.60;;
39218;SDS011;24934;52.752;6.964;2024-03-25T08:24:26;26.27;;;20.70;;
39218;SDS011;24934;52.752;6.964;2024-03-25T08:26:53;26.23;;;20.23;;
39218;SDS011;24934;52.752;6.964;2024-03-25T08:29:19;28.83;;;21.30;;
39218;SDS011;24934;52.752;6.964;2024-03-25T08:31:45;27.33;;;22.08;;
39218;SDS011;24934;52.752;6.964;2024-03-25T08:34:11;26.40;;;21.98;;
39218;SDS011;24934;52.752;6.964;2024-03-25T08:36:37;30.45;;;21.35;;
39218;SDS011;24934;52.752;6.964;2024-03-25T08:39:03;28.17;;;21.60;;
39218;SDS011;24934;52.752;6.964;2024-03-25T08:41:29;30.27;;;21.67;;
39218;SDS011;24934;52.752;6.964;2024-03-25T08:43:55;26.35;;;21.40;;
39218;SDS011;24934;52.752;6.964;2024-03-25T08:46:21;23.17;;;19.85;;
39218;SDS011;24934;52.752;6.964;2024-03-25T08:48:47;26.25;;;20.00;;
39218;SDS011;24934;52.752;6.964;2024-03-25T08:51:13;24.35;;;18.90;;
39218;SDS011;24934;52.752;6.964;2024-03-25T08:53:39;30.00;;;20.60;;
39218;SDS011;24934;52.752;6.964;2024-03-25T08:56:05;26.35;;;18.30;;
39218;SDS011;24934;52.752;6.964;2024-03-25T08:58:31;21.27;;;16.70;;
39218;SDS011;24934;52.752;6.964;2024-03-25T09:00:57;22.95;;;16.08;;
39218;SDS011;24934;52.752;6.964;2024-03-25T09:03:23;23.52;;;15.55;;
39218;SDS011;24934;52.752;6.964;2024-03-25T09:05:49;22.33;;;16.05;;
39218;SDS011;24934;52.752;6.964;2024-03-25T09:08:15;21.65;;;15.07;;
39218;SDS011;24934;52.752;6.964;2024-03-25T09:10:43;20.15;;;16.48;;
39218;SDS011;24934;52.752;6.964;2024-03-25T09:13:28;19.67;;;14.52;;
39218;SDS011;24934;52.752;6.964;2024-03-25T09:15:54;24.20;;;16.00;;
39218;SDS011;24934;52.752;6.964;2024-03-25T09:18:20;22.05;;;16.10;;
39218;SDS011;24934;52.752;6.964;2024-03-25T09:20:46;23.65;;;16.35;;
39218;SDS011;24934;52.752;6.964;2024-03-25T09:23:12;20.13;;;16.90;;
39218;SDS011;24934;52.752;6.964;2024-03-25T09:25:38;28.67;;;16.88;;
39218;SDS011;24934;52.752;6.964;2024-03-25T09:28:04;23.20;;;16.52;;
39218;SDS011;24934;52.752;6.964;2024-03-25T09:30:31;18.05;;;15.15;;
39218;SDS011;24934;52.752;6.964;2024-03-25T09:32:57;19.80;;;14.05;;
39218;SDS011;24934;52.752;6.964;2024-03-25T09:35:23;19.85;;;13.52;;
39218;SDS011;24934;52.752;6.964;2024-03-25T09:37:49;19.33;;;13.98;;
39218;SDS011;24934;52.752;6.964;2024-03-25T09:40:15;27.90;;;15.05;;
39218;SDS011;24934;52.752;6.964;2024-03-25T09:42:49;21.17;;;14.18;;
39218;SDS011;24934;52.752;6.964;2024-03-25T09:45:17;19.65;;;13.93;;
39218;SDS011;24934;52.752;6.964;2024-03-25T09:47:45;17.45;;;13.43;;
39218;SDS011;24934;52.752;6.964;2024-03-25T09:50:12;19.73;;;13.05;;
39218;SDS011;24934;52.752;6.964;2024-03-25T09:52:39;21.60;;;13.35;;
39218;SDS011;24934;52.752;6.964;2024-03-25T09:55:05;23.90;;;12.60;;
39218;SDS011;24934;52.752;6.964;2024-03-25T09:57:31;22.02;;;12.57;;
39218;SDS011;24934;52.752;6.964;2024-03-25T09:59:57;21.05;;;12.60;;
39218;SDS011;24934;52.752;6.964;2024-03-25T10:02:23;15.63;;;12.75;;
39218;SDS011;24934;52.752;6.964;2024-03-25T10:04:51;22.83;;;13.90;;
39218;SDS011;24934;52.752;6.964;2024-03-25T10:07:24;21.75;;;13.35;;
39218;SDS011;24934;52.752;6.964;2024-03-25T10:09:53;19.27;;;13.82;;
39218;SDS011;24934;52.752;6.964;2024-03-25T10:12:22;19.92;;;14.20;;
39218;SDS011;24934;52.752;6.964;2024-03-25T10:14:50;25.35;;;14.02;;
39218;SDS011;24934;52.752;6.964;2024-03-25T10:17:16;20.60;;;13.68;;
39218;SDS011;24934;52.752;6.964;2024-03-25T10:19:42;21.55;;;13.55;;
39218;SDS011;24934;52.752;6.964;2024-03-25T10:22:08;19.15;;;12.82;;
39218;SDS011;24934;52.752;6.964;2024-03-25T10:24:41;18.95;;;12.68;;
39218;SDS011;24934;52.752;6.964;2024-03-25T10:27:16;22.20;;;13.30;;
39218;SDS011;24934;52.752;6.964;2024-03-25T10:29:43;20.65;;;13.75;;
39218;SDS011;24934;52.752;6.964;2024-03-25T10:32:09;20.45;;;13.82;;
39218;SDS011;24934;52.752;6.964;2024-03-25T10:34:35;16.95;;;14.13;;
39218;SDS011;24934;52.752;6.964;2024-03-25T10:37:01;16.17;;;13.38;;
39218;SDS011;24934;52.752;6.964;2024-03-25T10:39:30;19.45;;;13.43;;
39218;SDS011;24934;52.752;6.964;2024-03-25T10:41:57;18.77;;;13.80;;
39218;SDS011;24934;52.752;6.964;2024-03-25T10:44:26;22.65;;;13.98;;
39218;SDS011;24934;52.752;6.964;2024-03-25T10:46:55;20.73;;;14.48;;
39218;SDS011;24934;52.752;6.964;2024-03-25T10:49:30;17.45;;;13.75;;
39218;SDS011;24934;52.752;6.964;2024-03-25T10:52:00;20.65;;;14.40;;
39218;SDS011;24934;52.752;6.964;2024-03-25T10:54:26;20.48;;;14.32;;
39218;SDS011;24934;52.752;6.964;2024-03-25T10:56:54;18.38;;;14.07;;
39218;SDS011;24934;52.752;6.964;2024-03-25T10:59:21;18.13;;;14.10;;
39218;SDS011;24934;52.752;6.964;2024-03-25T11:01:49;18.55;;;15.10;;
39218;SDS011;24934;52.752;6.964;2024-03-25T11:04:15;20.48;;;14.98;;
39218;SDS011;24934;52.752;6.964;2024-03-25T11:06:41;20.50;;;14.70;;
39218;SDS011;24934;52.752;6.964;2024-03-25T11:09:07;18.58;;;14.85;;
39218;SDS011;24934;52.752;6.964;2024-03-25T11:11:33;19.45;;;14.32;;
39218;SDS011;24934;52.752;6.964;2024-03-25T11:14:02;19.33;;;14.70;;
39218;SDS011;24934;52.752;6.964;2024-03-25T11:16:29;19.50;;;14.40;;
39218;SDS011;24934;52.752;6.964;2024-03-25T11:19:00;18.15;;;13.98;;
39218;SDS011;24934;52.752;6.964;2024-03-25T11:21:26;19.20;;;14.40;;
39218;SDS011;24934;52.752;6.964;2024-03-25T11:23:52;19.15;;;13.73;;
39218;SDS011;24934;52.752;6.964;2024-03-25T11:26:25;22.27;;;14.35;;
39218;SDS011;24934;52.752;6.964;2024-03-25T11:28:55;17.98;;;14.45;;
39218;SDS011;24934;52.752;6.964;2024-03-25T11:31:22;21.92;;;14.63;;
39218;SDS011;24934;52.752;6.964;2024-03-25T11:33:50;19.75;;;15.02;;
39218;SDS011;24934;52.752;6.964;2024-03-25T11:36:17;27.15;;;14.98;;
39218;SDS011;24934;52.752;6.964;2024-03-25T11:38:44;21.33;;;14.95;;
39218;SDS011;24934;52.752;6.964;2024-03-25T11:41:11;18.75;;;14.27;;
39218;SDS011;24934;52.752;6.964;2024-03-25T11:43:37;19.58;;;14.18;;
39218;SDS011;24934;52.752;6.964;2024-03-25T11:46:03;22.27;;;14.45;;
39218;SDS011;24934;52.752;6.964;2024-03-25T11:48:29;17.75;;;13.73;;
39218;SDS011;24934;52.752;6.964;2024-03-25T11:50:55;19.85;;;14.18;;
39218;SDS011;24934;52.752;6.964;2024-03-25T11:53:21;23.15;;;14.63;;
39218;SDS011;24934;52.752;6.964;2024-03-25T11:55:47;18.85;;;13.75;;
39218;SDS011;24934;52.752;6.964;2024-03-25T11:58:16;24.15;;;14.18;;
39218;SDS011;24934;52.752;6.964;2024-03-25T12:00:46;20.13;;;14.65;;
39218;SDS011;24934;52.752;6.964;2024-03-25T12:03:15;19.23;;;13.88;;
39218;SDS011;24934;52.752;6.964;2024-03-25T12:05:43;18.83;;;14.13;;
39218;SDS011;24934;52.752;6.964;2024-03-25T12:08:10;18.13;;;13.55;;
39218;SDS011;24934;52.752;6.964;2024-03-25T12:10:42;21.35;;;14.35;;
39218;SDS011;24934;52.752;6.964;2024-03-25T12:13:27;19.40;;;15.05;;
39218;SDS011;24934;52.752;6.964;2024-03-25T12:15:53;20.70;;;15.93;;
39218;SDS011;24934;52.752;6.964;2024-03-25T12:18:22;19.75;;;14.40;;
39218;SDS011;24934;52.752;6.964;2024-03-25T12:20:48;16.33;;;13.15;;
39218;SDS011;24934;52.752;6.964;2024-03-25T12:23:14;18.00;;;13.73;;
39218;SDS011;24934;52.752;6.964;2024-03-25T12:25:41;15.93;;;14.32;;
39218;SDS011;24934;52.752;6.964;2024-03-25T12:28:10;16.85;;;14.45;;
39218;SDS011;24934;52.752;6.964;2024-03-25T12:33:06;19.50;;;13.15;;
39218;SDS011;24934;52.752;6.964;2024-03-25T12:35:34;16.85;;;13.30;;
39218;SDS011;24934;52.752;6.964;2024-03-25T12:38:00;18.25;;;12.82;;
39218;SDS011;24934;52.752;6.964;2024-03-25T12:40:27;15.48;;;12.50;;
39218;SDS011;24934;52.752;6.964;2024-03-25T12:42:53;15.63;;;12.23;;
39218;SDS011;24934;52.752;6.964;2024-03-25T12:45:20;18.77;;;12.48;;
39218;SDS011;24934;52.752;6.964;2024-03-25T12:47:46;15.98;;;12.35;;
39218;SDS011;24934;52.752;6.964;2024-03-25T12:50:12;17.67;;;12.75;;
39218;SDS011;24934;52.752;6.964;2024-03-25T12:52:38;16.52;;;11.98;;
39218;SDS011;24934;52.752;6.964;2024-03-25T12:55:04;22.15;;;13.15;;
39218;SDS011;24934;52.752;6.964;2024-03-25T12:57:30;22.95;;;13.45;;
39218;SDS011;24934;52.752;6.964;2024-03-25T12:59:56;16.10;;;13.05;;
39218;SDS011;24934;52.752;6.964;2024-03-25T13:02:22;14.77;;;12.27;;
39218;SDS011;24934;52.752;6.964;2024-03-25T13:04:48;16.98;;;12.77;;
39218;SDS011;24934;52.752;6.964;2024-03-25T13:07:14;21.58;;;13.55;;
39218;SDS011;24934;52.752;6.964;2024-03-25T13:09:39;16.17;;;12.88;;
39218;SDS011;24934;52.752;6.964;2024-03-25T13:12:06;17.02;;;13.05;;
39218;SDS011;24934;52.752;6.964;2024-03-25T13:14:32;16.55;;;12.77;;
39218;SDS011;24934;52.752;6.964;2024-03-25T13:16:58;16.05;;;13.95;;
39218;SDS011;24934;52.752;6.964;2024-03-25T13:19:24;17.58;;;13.02;;
39218;SDS011;24934;52.752;6.964;2024-03-25T13:21:53;16.40;;;13.13;;
39218;SDS011;24934;52.752;6.964;2024-03-25T13:24:19;15.55;;;13.50;;
39218;SDS011;24934;52.752;6.964;2024-03-25T13:26:45;17.75;;;13.32;;
39218;SDS011;24934;52.752;6.964;2024-03-25T13:29:13;18.25;;;13.23;;
39218;SDS011;24934;52.752;6.964;2024-03-25T13:31:40;15.60;;;12.55;;
39218;SDS011;24934;52.752;6.964;2024-03-25T13:34:06;18.63;;;13.00;;
39218;SDS011;24934;52.752;6.964;2024-03-25T13:36:33;15.60;;;12.05;;
39218;SDS011;24934;52.752;6.964;2024-03-25T13:38:59;14.45;;;12.52;;
39218;SDS011;24934;52.752;6.964;2024-03-25T13:41:25;16.83;;;13.25;;
39218;SDS011;24934;52.752;6.964;2024-03-25T13:43:51;14.98;;;12.80;;
39218;SDS011;24934;52.752;6.964;2024-03-25T13:46:17;19.95;;;12.88;;
39218;SDS011;24934;52.752;6.964;2024-03-25T13:48:44;16.80;;;12.93;;
39218;SDS011;24934;52.752;6.964;2024-03-25T13:51:10;17.80;;;13.18;;
39218;SDS011;24934;52.752;6.964;2024-03-25T13:53:36;17.23;;;13.80;;
39218;SDS011;24934;52.752;6.964;2024-03-25T13:56:02;18.35;;;13.73;;
39218;SDS011;24934;52.752;6.964;2024-03-25T13:58:29;17.55;;;13.20;;
39218;SDS011;24934;52.752;6.964;2024-03-25T14:00:54;17.33;;;13.98;;
39218;SDS011;24934;52.752;6.964;2024-03-25T14:03:21;15.85;;;14.13;;
39218;SDS011;24934;52.752;6.964;2024-03-25T14:05:47;20.55;;;14.25;;
39218;SDS011;24934;52.752;6.964;2024-03-25T14:08:13;19.42;;;14.00;;
39218;SDS011;24934;52.752;6.964;2024-03-25T14:10:38;17.88;;;13.40;;
39218;SDS011;24934;52.752;6.964;2024-03-25T14:13:04;15.82;;;13.20;;
39218;SDS011;24934;52.752;6.964;2024-03-25T14:15:31;16.45;;;12.10;;
39218;SDS011;24934;52.752;6.964;2024-03-25T14:17:57;13.27;;;11.93;;
39218;SDS011;24934;52.752;6.964;2024-03-25T14:20:23;14.95;;;11.93;;